Aspinwall, Pennsylvania
Current Conditions -  °F | °C
As of 7:53 AM on Thursday 27 Nov 2014 (Local Time) from KAGC Reporting Station
Haze Haze  
Wind Chill: 26°   Ceiling: 4600
Heat Index: 31°   Visibility: 3mi
Dew Point: 27°   Wind: 5mph
Humidity: 85%   Direction: 310°NW
Pressure: 30.02"   Gusts: NA
Location:  40.5049°N, 79.9132°W
Report Text: KAGC 271253Z 31004KT 3SM BR OVC046 M01/M03 A3002 RMK AO2 SLP182 T10061028
Loading
Personal Weather Stations






























Interactive Weather Map New forecast layout! Learn more

10-Day Weather Forecast

Advertisements
Track Severe Weather on mobile